Time;durP1;ratioP1;P1;durP2;ratioP2;P2;SDS_P1;SDS_P2;PMS_P1;PMS_P2;Temp;Humidity;BMP_temperature;BMP_pressure;BME280_temperature;BME280_humidity;BME280_pressure;Samples;Min_cycle;Max_cycle;Signal;HPM_P1;HPM_P2
2023/02/12 00:01:32;;;;;;;42.13;19.10;;;;;;;-0.74;51.06;101940.50;5017954;28;20148;-80
2023/02/12 00:03:58;;;;;;;39.17;18.67;;;;;;;-0.75;50.74;101925.56;5022471;28;20033;-82
2023/02/12 00:06:25;;;;;;;40.85;18.77;;;;;;;-0.61;50.63;101934.75;5021515;28;20041;-81
2023/02/12 00:08:51;;;;;;;38.42;18.50;;;;;;;-0.67;50.62;101920.84;5007556;28;20045;-82
2023/02/12 00:11:21;;;;;;;38.38;18.33;;;;;;;-0.62;50.44;101939.16;4998323;28;20509;-82
2023/02/12 00:13:46;;;;;;;38.65;17.95;;;;;;;-0.70;50.50;101918.34;5005170;28;20037;-81
2023/02/12 00:16:13;;;;;;;37.67;17.20;;;;;;;-0.79;50.70;101921.31;5019697;28;20037;-82
2023/02/12 00:18:39;;;;;;;34.13;16.55;;;;;;;-0.80;50.34;101919.59;4997051;28;20042;-82
2023/02/12 00:21:07;;;;;;;35.00;16.93;;;;;;;-0.61;49.76;101927.69;5012990;28;20056;-82
2023/02/12 00:23:33;;;;;;;39.47;15.93;;;;;;;-0.63;50.04;101921.63;5018032;28;20048;-82
2023/02/12 00:26:00;;;;;;;36.72;15.93;;;;;;;-0.59;49.91;101925.00;5022007;28;20034;-84
2023/02/12 00:28:27;;;;;;;36.03;17.02;;;;;;;-0.58;50.01;101926.72;5016006;28;20378;-80
2023/02/12 00:30:54;;;;;;;39.60;18.15;;;;;;;-0.45;49.77;101941.16;5022718;28;20402;-81
2023/02/12 00:33:20;;;;;;;35.90;17.17;;;;;;;-0.51;49.78;101937.00;5022425;28;20057;-81
2023/02/12 00:35:57;;;;;;;44.35;18.08;;;;;;;-0.60;50.04;101924.13;5015700;28;20041;-80
2023/02/12 00:38:24;;;;;;;40.05;18.55;;;;;;;-0.51;49.88;101920.28;5021184;28;20498;-82
2023/02/12 00:40:49;;;;;;;39.35;18.85;;;;;;;-0.48;50.08;101921.00;5014119;28;20037;-81
2023/02/12 00:43:16;;;;;;;42.53;20.88;;;;;;;-0.42;50.16;101917.28;5031330;28;20053;-81
2023/02/12 00:45:45;;;;;;;46.60;21.00;;;;;;;-0.47;49.98;101911.28;5020419;28;20134;-81
2023/02/12 00:48:12;;;;;;;42.88;21.02;;;;;;;-0.44;49.94;101917.34;5031720;28;20091;-82
2023/02/12 00:50:40;;;;;;;45.72;23.15;;;;;;;-0.37;49.65;101912.69;5028160;28;20073;-82
2023/02/12 00:53:06;;;;;;;48.88;22.50;;;;;;;-0.40;50.06;101912.78;5015630;28;20441;-82
2023/02/12 00:55:32;;;;;;;46.85;21.25;;;;;;;-0.47;50.09;101892.81;5007021;28;20426;-78
2023/02/12 00:57:58;;;;;;;;;;;;;;;-0.40;50.17;101912.78;5023576;28;20398;-81
2023/02/12 01:00:23;;;;;;;;;;;;;;;-0.52;50.29;101902.69;5042782;28;19915;-81
2023/02/12 01:02:49;;;;;;;40.30;19.30;;;;;;;-0.44;50.21;101900.63;5006045;28;19956;-83
2023/02/12 01:05:14;;;;;;;47.28;21.33;;;;;;;-0.53;50.38;101882.50;5021027;28;20492;-82
2023/02/12 01:07:40;;;;;;;44.33;21.73;;;;;;;-0.50;50.30;101879.72;5019925;28;20036;-81
2023/02/12 01:10:09;;;;;;;47.00;23.20;;;;;;;-0.50;50.52;101898.22;5028568;28;20079;-82
2023/02/12 01:12:35;;;;;;;50.40;24.20;;;;;;;-0.52;50.36;101892.97;5046701;28;20037;-83
2023/02/12 01:15:00;;;;;;;47.50;22.90;;;;;;;-0.55;50.48;101884.31;5010236;28;20568;-82
2023/02/12 01:17:26;;;;;;;49.97;24.67;;;;;;;-0.54;50.36;101880.75;4996744;28;20049;-82
2023/02/12 01:19:56;;;;;;;46.23;23.57;;;;;;;-0.64;50.24;101873.19;5021681;28;20029;-81
2023/02/12 01:22:21;;;;;;;51.55;24.42;;;;;;;-0.47;50.53;101887.53;5007934;28;20057;-81
2023/02/12 01:24:47;;;;;;;45.58;23.65;;;;;;;-0.41;50.18;101897.84;5027201;28;20048;-84
2023/02/12 01:27:13;;;;;;;51.33;25.03;;;;;;;-0.31;50.08;101896.56;5020316;28;20079;-86
2023/02/12 01:29:39;;;;;;;51.23;24.93;;;;;;;-0.33;49.94;101887.88;5024483;28;20037;-83
2023/02/12 01:32:04;;;;;;;50.42;26.05;;;;;;;-0.28;50.11;101874.44;4994145;28;20052;-83
2023/02/12 01:34:30;;;;;;;53.50;27.35;;;;;;;-0.15;50.07;101888.03;5008855;28;20438;-83
2023/02/12 01:36:55;;;;;;;57.50;26.43;;;;;;;-0.39;50.39;101885.44;5009634;28;20071;-83
2023/02/12 01:39:21;;;;;;;56.50;27.37;;;;;;;-0.27;50.27;101886.75;5005316;28;20072;-82
2023/02/12 01:41:47;;;;;;;53.30;26.25;;;;;;;-0.24;50.08;101870.75;5012318;28;20059;-83
2023/02/12 01:44:23;;;;;;;53.53;27.73;;;;;;;-0.10;50.08;101872.84;5013926;28;20478;-81
2023/02/12 01:46:59;;;;;;;51.67;26.25;;;;;;;-0.25;50.45;101880.47;5050788;28;20049;-81
2023/02/12 01:49:31;;;;;;;48.38;24.30;;;;;;;-0.25;50.45;101871.69;5048159;28;20032;-82
2023/02/12 01:52:26;;;;;;;50.03;25.13;;;;;;;-0.25;50.53;101876.97;5024196;28;20124;-81
2023/02/12 01:54:53;;;;;;;52.50;25.48;;;;;;;-0.37;50.51;101849.25;5032789;28;20052;-82
2023/02/12 01:57:18;;;;;;;51.75;24.08;;;;;;;-0.47;51.43;101874.31;5017726;28;20276;-83
2023/02/12 01:59:44;;;;;;;58.00;25.07;;;;;;;-0.39;51.91;101880.16;5010524;28;20124;-82
2023/02/12 02:02:10;;;;;;;49.28;23.95;;;;;;;-0.58;52.56;101879.19;5009562;28;20127;-84
2023/02/12 02:04:39;;;;;;;51.33;23.00;;;;;;;-0.76;53.08;101884.22;4991010;28;20041;-85
2023/02/12 02:07:06;;;;;;;55.20;23.80;;;;;;;-0.86;53.34;101872.31;5004831;28;20072;-84
2023/02/12 02:09:36;;;;;;;54.78;24.20;;;;;;;-0.77;53.28;101876.34;4995278;28;20037;-84
2023/02/12 02:14:48;;;;;;;57.13;25.65;;;;;;;-0.95;53.91;101883.19;5023198;28;20131;-84
2023/02/12 02:17:35;;;;;;;50.13;23.65;;;;;;;-0.93;54.06;101886.66;5012231;28;20071;-85
2023/02/12 02:20:23;;;;;;;49.08;23.40;;;;;;;-0.88;53.57;101884.69;5038788;28;20041;-83
2023/02/12 02:23:16;;;;;;;48.78;23.70;;;;;;;-0.97;53.97;101872.69;5040155;28;20033;-83
2023/02/12 02:26:18;;;;;;;47.35;23.80;;;;;;;-1.14;54.77;101875.97;5040383;28;20053;-83
2023/02/12 02:28:55;;;;;;;50.20;23.77;;;;;;;-1.21;54.76;101877.09;5038240;28;20037;-82
2023/02/12 02:31:45;;;;;;;49.80;21.40;;;;;;;-1.32;55.20;101874.84;5042769;28;20512;-84
2023/02/12 02:34:37;;;;;;;45.03;20.83;;;;;;;-1.25;54.83;101883.41;5030436;28;20336;-83
2023/02/12 02:37:21;;;;;;;44.75;20.58;;;;;;;-1.32;55.05;101884.53;5026005;28;20026;-81
2023/02/12 02:39:49;;;;;;;45.97;19.25;;;;;;;-1.20;54.50;101885.88;5010389;28;20033;-82
2023/02/12 02:42:17;;;;;;;52.50;19.02;;;;;;;-1.12;54.03;101887.31;5039725;28;20052;-82
2023/02/12 02:44:54;;;;;;;40.65;17.65;;;;;;;-1.26;54.35;101884.31;5045022;28;20518;-83
2023/02/12 02:47:43;;;;;;;37.78;17.77;;;;;;;-1.17;53.98;101891.91;5020450;28;20080;-82
2023/02/12 02:50:33;;;;;;;39.95;17.98;;;;;;;-1.08;53.49;101882.78;5025610;28;20042;-83
2023/02/12 02:53:12;;;;;;;41.50;16.52;;;;;;;-1.10;53.70;101884.63;5024779;28;21508;-83
2023/02/12 02:55:43;;;;;;;39.05;17.15;;;;;;;-1.07;53.59;101885.38;5028196;28;20091;-83
2023/02/12 02:58:14;;;;;;;35.63;17.23;;;;;;;-1.07;53.31;101864.25;5024250;28;20041;-83
2023/02/12 03:01:17;;;;;;;40.42;16.40;;;;;;;-0.85;52.92;101879.28;5022971;28;20056;-82
2023/02/12 03:04:07;;;;;;;37.67;17.15;;;;;;;-0.84;52.75;101875.75;5020238;28;20108;-79
2023/02/12 03:06:54;;;;;;;37.78;15.90;;;;;;;-0.77;52.88;101874.59;5011603;28;20128;-83
2023/02/12 03:09:48;;;;;;;42.63;17.05;;;;;;;-0.62;52.54;101875.78;4998634;28;20068;-81
2023/02/12 03:12:20;;;;;;;36.85;16.17;;;;;;;-0.68;52.58;101876.00;5023510;28;20482;-81
2023/02/12 03:15:10;;;;;;;35.67;16.33;;;;;;;-0.72;52.92;101880.56;4994182;28;20029;-82
2023/02/12 03:17:43;;;;;;;38.28;16.48;;;;;;;-0.80;53.36;101879.97;5017143;28;20531;-84
2023/02/12 03:20:16;;;;;;;41.67;16.83;;;;;;;-0.75;53.15;101891.25;5017431;28;20028;-82
2023/02/12 03:22:45;;;;;;;42.85;18.00;;;;;;;-0.81;53.56;101880.91;5006783;28;20030;-81
2023/02/12 03:25:56;;;;;;;38.72;17.88;;;;;;;-0.88;53.33;101860.94;5013573;28;20053;-83
2023/02/12 03:28:25;;;;;;;43.63;18.90;;;;;;;-0.94;53.98;101884.91;5026500;28;20529;-80
2023/02/12 03:31:02;;;;;;;43.58;19.50;;;;;;;-1.11;54.50;101860.00;5018518;28;20041;-81
2023/02/12 03:33:33;;;;;;;38.33;18.85;;;;;;;-0.94;54.12;101877.84;5008998;28;20044;-82
2023/02/12 03:36:04;;;;;;;40.83;19.80;;;;;;;-0.92;54.38;101880.44;5019982;28;20091;-84
2023/02/12 03:38:41;;;;;;;45.70;20.15;;;;;;;-0.84;53.94;101875.75;5040028;28;20056;-82
2023/02/12 03:41:19;;;;;;;42.53;19.27;;;;;;;-0.78;54.02;101877.28;5016400;28;20080;-82
2023/02/12 03:44:10;;;;;;;40.22;19.67;;;;;;;-0.77;54.28;101893.09;5028013;28;20049;-83
2023/02/12 03:46:54;;;;;;;36.67;17.63;;;;;;;-0.74;53.84;101879.75;5025256;28;20071;-81
2023/02/12 03:50:06;;;;;;;39.67;17.80;;;;;;;-0.70;54.15;101889.28;5016578;28;20118;-81
2023/02/12 03:52:34;;;;;;;45.05;18.33;;;;;;;-0.85;54.54;101885.44;5032559;28;20439;-83
2023/02/12 03:54:59;;;;;;;48.38;20.80;;;;;;;-0.86;54.60;101878.44;5013698;28;20499;-82
2023/02/12 03:57:29;;;;;;;51.03;20.73;;;;;;;-0.85;54.62;101882.78;5044010;28;20095;-80
2023/02/12 03:59:57;;;;;;;45.92;18.85;;;;;;;-0.96;55.35;101886.75;5010258;28;20060;-82
2023/02/12 04:02:25;;;;;;;45.85;19.33;;;;;;;-0.90;54.84;101881.25;5011688;28;20045;-81
2023/02/12 04:04:52;;;;;;;42.42;19.23;;;;;;;-0.81;54.94;101878.25;5010251;28;20350;-81
2023/02/12 04:07:17;;;;;;;48.85;19.42;;;;;;;-0.89;55.15;101875.03;5019467;28;20346;-82
2023/02/12 04:09:43;;;;;;;50.87;19.70;;;;;;;-0.80;54.83;101881.75;5022092;28;20049;-83
2023/02/12 04:12:23;;;;;;;53.47;20.53;;;;;;;-0.98;55.15;101862.22;5016746;28;20037;-82
2023/02/12 04:15:14;;;;;;;42.42;18.00;;;;;;;-0.94;55.28;101884.91;5035306;28;20088;-82
2023/02/12 04:18:19;;;;;;;39.33;19.05;;;;;;;-1.17;55.89;101880.47;5016002;28;20056;-82
2023/02/12 04:21:06;;;;;;;46.45;17.33;;;;;;;-1.04;55.63;101894.97;5032018;28;20429;-81
2023/02/12 04:23:39;;;;;;;36.97;16.75;;;;;;;-1.00;55.32;101893.94;5044244;28;20442;-81
2023/02/12 04:26:28;;;;;;;36.15;16.23;;;;;;;-0.93;54.92;101886.66;5024715;28;20032;-81
2023/02/12 04:29:09;;;;;;;36.08;16.17;;;;;;;-1.03;55.11;101879.97;5026173;28;20033;-81
2023/02/12 04:31:38;;;;;;;34.33;16.30;;;;;;;-1.17;55.65;101898.94;5018928;28;20085;-82
2023/02/12 04:34:26;;;;;;;35.95;15.65;;;;;;;-1.20;55.69;101893.78;5023900;28;21517;-83
2023/02/12 04:37:11;;;;;;;37.33;15.45;;;;;;;-1.28;55.85;101904.63;5039340;28;20481;-82
2023/02/12 04:39:38;;;;;;;34.33;14.95;;;;;;;-1.20;55.61;101901.72;5026564;28;20068;-82
2023/02/12 04:42:04;;;;;;;34.15;15.35;;;;;;;-1.20;55.69;101912.25;5009067;28;20045;-81
2023/02/12 04:44:32;;;;;;;38.92;15.23;;;;;;;-1.23;55.51;101905.31;5037912;28;20045;-83
2023/02/12 04:46:58;;;;;;;30.55;13.85;;;;;;;-1.40;55.32;101886.59;4987805;28;20095;-80
2023/02/12 04:49:23;;;;;;;34.47;13.65;;;;;;;-1.19;55.28;101909.59;5014382;28;20033;-81
2023/02/12 04:51:50;;;;;;;30.73;13.18;;;;;;;-1.25;55.09;101891.31;5017395;28;20091;-83
2023/02/12 04:54:17;;;;;;;34.20;13.77;;;;;;;-1.14;55.15;101918.19;5041901;28;20063;-80
2023/02/12 04:56:44;;;;;;;34.00;14.32;;;;;;;-1.19;55.32;101906.09;5018657;28;20195;-80
2023/02/12 04:59:13;;;;;;;25.92;12.90;;;;;;;-1.28;55.33;101896.72;5004579;28;20074;-82
2023/02/12 05:01:40;;;;;;;28.38;13.32;;;;;;;-1.13;55.17;101913.75;4995561;28;20114;-81
2023/02/12 05:04:06;;;;;;;31.67;13.63;;;;;;;-1.00;55.06;101916.84;5009753;28;20458;-82
2023/02/12 05:06:36;;;;;;;30.10;13.55;;;;;;;-1.21;55.49;101903.50;5023910;28;20406;-81
2023/02/12 05:09:04;;;;;;;30.73;13.93;;;;;;;-0.96;55.10;101921.06;5025953;28;20474;-83
2023/02/12 05:11:30;;;;;;;26.70;12.65;;;;;;;-0.98;55.38;101933.50;5020437;28;20048;-81
2023/02/12 05:13:56;;;;;;;29.60;13.38;;;;;;;-0.86;55.26;101936.53;5041343;28;20037;-81
2023/02/12 05:16:22;;;;;;;30.35;13.23;;;;;;;-0.86;55.34;101936.53;5002798;28;20099;-82
2023/02/12 05:18:48;;;;;;;34.73;13.67;;;;;;;-0.77;55.22;101937.97;5038778;28;20904;-81
2023/02/12 05:21:13;;;;;;;;;;;;;;;-0.57;54.95;101936.34;5042110;28;20643;-83
2023/02/12 05:23:40;;;;;;;;;;;;;;;-0.54;55.31;101944.16;5018310;28;19991;-81
2023/02/12 05:26:08;;;;;;;31.15;13.07;;;;;;;-0.68;55.90;101940.28;5019040;28;19973;-80
2023/02/12 05:28:35;;;;;;;31.83;14.40;;;;;;;-0.63;56.68;101953.31;5037011;28;20077;-81
2023/02/12 05:31:02;;;;;;;31.58;14.65;;;;;;;-0.61;57.22;101955.88;5026967;28;20124;-83
2023/02/12 05:33:27;;;;;;;28.33;14.00;;;;;;;-0.50;56.79;101959.84;5017038;28;20052;-81
2023/02/12 05:35:54;;;;;;;32.77;14.53;;;;;;;-0.50;57.33;101951.91;5006968;28;20032;-82
2023/02/12 05:38:20;;;;;;;36.83;14.98;;;;;;;-0.46;57.29;101955.31;5007742;28;20034;-82
2023/02/12 05:40:45;;;;;;;34.33;15.93;;;;;;;-0.51;57.29;101960.78;5005689;28;20048;-82
2023/02/12 05:43:11;;;;;;;33.43;15.87;;;;;;;-0.40;56.90;101952.41;4996887;28;20506;-82
2023/02/12 05:45:36;;;;;;;30.80;15.10;;;;;;;-0.64;57.12;101947.16;5010878;28;20410;-81
2023/02/12 05:48:03;;;;;;;;;;;;;;;-0.45;57.02;101972.88;5014497;28;20307;-80
2023/02/12 05:50:28;;;;;;;;;;;;;;;-0.50;57.35;101966.91;5024913;28;20029;-77
2023/02/12 05:52:55;;;;;;;32.73;14.30;;;;;;;-0.55;57.22;101971.50;5023513;28;19956;-80
2023/02/12 05:55:21;;;;;;;33.55;14.60;;;;;;;-0.46;56.71;101965.88;5012302;28;20068;-81
2023/02/12 05:57:48;;;;;;;39.65;16.02;;;;;;;-0.23;56.46;101983.50;5043545;28;20159;-81
2023/02/12 06:00:15;;;;;;;33.65;15.95;;;;;;;-0.14;55.91;101984.91;5040043;28;20052;-81
2023/02/12 06:02:41;;;;;;;35.67;15.85;;;;;;;-0.10;55.88;101990.03;5011504;28;20029;-81
2023/02/12 06:05:07;;;;;;;35.70;15.60;;;;;;;0.13;55.29;102007.63;5010917;28;20032;-84
2023/02/12 06:07:34;;;;;;;37.97;15.70;;;;;;;0.25;55.03;102008.06;5019951;28;20087;-86
2023/02/12 06:10:00;;;;;;;30.85;15.45;;;;;;;0.37;54.75;101995.19;5005849;28;20053;-82
2023/02/12 06:12:27;;;;;;;37.37;16.90;;;;;;;0.58;54.74;102003.19;5008885;28;20044;-82
2023/02/12 06:14:52;;;;;;;34.63;17.55;;;;;;;0.65;54.38;102007.28;5037380;28;20187;-81
2023/02/12 06:17:19;;;;;;;33.33;16.60;;;;;;;0.57;54.63;102002.31;5006880;28;20056;-81
2023/02/12 06:19:44;;;;;;;37.50;17.05;;;;;;;0.97;54.06;102005.94;5027668;28;20037;-84
2023/02/12 06:22:09;;;;;;;39.97;17.47;;;;;;;1.33;53.42;102007.88;5034557;28;20112;-79
2023/02/12 06:24:36;;;;;;;41.43;18.40;;;;;;;1.51;52.76;101995.59;5048753;28;20045;-79
2023/02/12 06:27:05;;;;;;;40.35;18.45;;;;;;;1.41;53.07;102000.47;5045363;28;20051;-80
2023/02/12 06:29:31;;;;;;;37.00;18.70;;;;;;;1.52;53.09;101985.84;5035714;28;20037;-77
2023/02/12 06:31:56;;;;;;;37.50;19.42;;;;;;;1.46;53.21;101998.47;5019041;28;20091;-79
2023/02/12 06:34:22;;;;;;;39.50;18.90;;;;;;;1.58;53.02;102002.34;5046798;28;20416;-78
2023/02/12 06:36:47;;;;;;;37.50;18.87;;;;;;;1.59;53.18;102012.03;5013769;28;20072;-81
2023/02/12 06:39:14;;;;;;;34.40;17.80;;;;;;;1.82;52.81;102010.09;5035941;28;20034;-76
2023/02/12 06:41:40;;;;;;;40.15;18.23;;;;;;;2.18;51.86;102014.59;5007081;28;20141;-78
2023/02/12 06:44:06;;;;;;;39.25;19.38;;;;;;;1.93;52.08;101996.34;4997903;28;20045;-78
2023/02/12 06:46:31;;;;;;;39.15;18.63;;;;;;;2.37;51.20;102015.44;5002003;28;20064;-79
2023/02/12 06:48:59;;;;;;;38.73;19.90;;;;;;;2.97;49.58;101996.47;4989193;28;20493;-77
2023/02/12 06:51:25;;;;;;;45.08;19.70;;;;;;;3.79;47.22;101995.66;4997036;28;20504;-78
2023/02/12 06:53:53;;;;;;;38.50;19.75;;;;;;;4.54;46.47;102010.09;5002762;28;20090;-79
2023/02/12 06:56:19;;;;;;;40.28;20.33;;;;;;;4.79;45.08;102003.31;5013465;28;20074;-79
2023/02/12 06:58:49;;;;;;;41.53;20.45;;;;;;;5.34;44.04;102005.31;5001675;28;20036;-78
2023/02/12 07:01:20;;;;;;;39.58;20.20;;;;;;;5.56;43.77;102004.00;5036399;28;20033;-78
2023/02/12 07:04:02;;;;;;;36.50;20.02;;;;;;;5.40;43.78;102009.41;5048911;28;20116;-81
2023/02/12 07:06:28;;;;;;;37.00;19.48;;;;;;;5.05;44.72;102004.41;5027570;28;20079;-79
2023/02/12 07:08:57;;;;;;;34.63;18.90;;;;;;;4.60;45.68;102009.69;5011712;28;20037;-80
2023/02/12 07:11:28;;;;;;;37.42;19.52;;;;;;;4.56;46.19;102008.16;5020828;28;20037;-82
2023/02/12 07:13:53;;;;;;;40.05;20.77;;;;;;;4.34;46.79;102021.88;5009509;28;20043;-81
2023/02/12 07:16:19;;;;;;;40.50;19.77;;;;;;;4.45;46.79;102021.25;5041610;28;20041;-80
2023/02/12 07:18:45;;;;;;;39.17;19.83;;;;;;;4.31;47.28;102014.06;5013695;28;20477;-82
2023/02/12 07:21:11;;;;;;;38.42;20.05;;;;;;;4.49;46.91;102011.28;5021010;28;20700;-76
2023/02/12 07:23:38;;;;;;;40.22;20.20;;;;;;;4.38;47.02;102015.44;5037473;28;20037;-85
2023/02/12 07:26:13;;;;;;;39.55;20.05;;;;;;;4.28;47.31;102016.88;5018510;28;20048;-81
2023/02/12 07:28:39;;;;;;;37.40;20.30;;;;;;;4.53;47.15;102027.00;5042518;28;20029;-86
2023/02/12 07:31:07;;;;;;;41.67;20.13;;;;;;;4.51;47.22;102031.53;5017947;28;20045;-79
2023/02/12 07:33:33;;;;;;;39.38;20.50;;;;;;;4.50;47.17;102013.84;5022688;28;20077;-87
2023/02/12 07:36:00;;;;;;;38.95;20.17;;;;;;;4.88;46.79;102039.22;5045076;28;20045;-86
2023/02/12 07:38:27;;;;;;;36.25;18.70;;;;;;;4.85;46.15;102021.59;5036802;28;20045;-84
2023/02/12 07:40:58;;;;;;;34.83;19.27;;;;;;;5.18;45.87;102042.72;5014262;28;20048;-84
2023/02/12 07:43:26;;;;;;;37.92;19.80;;;;;;;5.50;45.08;102042.56;5015848;28;20087;-89
2023/02/12 07:45:53;;;;;;;50.38;25.45;;;;;;;5.58;44.96;102034.09;5009041;28;20033;-87
2023/02/12 07:48:25;;;;;;;37.97;20.80;;;;;;;5.84;43.80;102016.44;5017941;28;20109;-87
2023/02/12 07:50:52;;;;;;;42.30;21.10;;;;;;;6.00;43.78;102046.59;5043383;28;20462;-86
2023/02/12 07:53:17;;;;;;;36.47;21.17;;;;;;;6.04;43.38;102048.13;5058067;28;20293;-80
2023/02/12 07:55:43;;;;;;;41.80;20.98;;;;;;;6.04;43.46;102041.91;5010777;28;20033;-85
2023/02/12 07:58:08;;;;;;;41.60;21.70;;;;;;;6.52;42.53;102048.56;5043676;28;20025;-83
2023/02/12 08:00:34;;;;;;;44.25;22.35;;;;;;;6.51;42.05;102041.50;5038252;28;20474;-86
2023/02/12 08:03:00;;;;;;;;;;;;;;;6.30;42.29;102048.25;5018867;28;20036;-79
2023/02/12 08:05:28;;;;;;;40.58;20.52;;;;;;;6.34;42.26;102050.63;5055328;28;19932;-85
2023/02/12 08:07:55;;;;;;;37.30;18.75;;;;;;;6.29;42.25;102039.38;5061267;28;20029;-80
2023/02/12 08:10:29;;;;;;;37.38;19.83;;;;;;;6.32;42.10;102047.22;5009050;28;20041;-82
2023/02/12 08:12:56;;;;;;;35.47;19.30;;;;;;;6.92;41.07;102047.72;5025079;28;20126;-79
2023/02/12 08:15:21;;;;;;;37.45;17.85;;;;;;;6.95;41.06;102058.22;5016133;28;20092;-80
2023/02/12 08:17:50;;;;;;;32.33;18.27;;;;;;;7.45;39.91;102048.56;4998335;28;20139;-82
2023/02/12 08:20:15;;;;;;;33.10;17.17;;;;;;;7.65;43.07;102038.25;5049154;28;20150;-80
2023/02/12 08:22:41;;;;;;;38.15;19.25;;;;;;;7.93;38.80;102050.53;5034719;28;20029;-84
2023/02/12 08:25:08;;;;;;;29.75;17.38;;;;;;;8.17;38.34;102062.19;5017870;28;20092;-78
2023/02/12 08:27:34;;;;;;;29.70;17.08;;;;;;;8.14;38.43;102062.38;4988660;28;20129;-77
2023/02/12 08:30:00;;;;;;;29.17;16.98;;;;;;;7.67;39.15;102065.78;5044935;28;20033;-78
2023/02/12 08:32:25;;;;;;;31.02;18.15;;;;;;;7.96;38.96;102055.66;4992481;28;20048;-77
2023/02/12 08:34:51;;;;;;;32.97;19.27;;;;;;;7.98;38.69;102069.81;4999398;28;20052;-78
2023/02/12 08:37:24;;;;;;;34.35;19.05;;;;;;;7.81;39.08;102074.53;4998875;28;20052;-78
2023/02/12 08:39:50;;;;;;;35.17;18.75;;;;;;;7.62;39.34;102076.81;5029803;28;20432;-85
2023/02/12 08:42:16;;;;;;;;;;;;;;;7.17;40.37;102084.38;5033095;28;20054;-85
2023/02/12 08:44:43;;;;;;;36.67;19.83;;;;;;;6.96;40.74;102079.50;5026927;28;19981;-79
2023/02/12 08:47:09;;;;;;;38.30;21.33;;;;;;;7.37;39.90;102081.19;5026008;28;20041;-88
2023/02/12 08:49:35;;;;;;;37.92;21.55;;;;;;;7.15;40.25;102081.78;5027233;28;20045;-84
2023/02/12 08:52:01;;;;;;;43.27;24.13;;;;;;;7.32;39.98;102069.09;5024637;28;20087;-82
2023/02/12 08:54:28;;;;;;;45.35;23.38;;;;;;;7.66;39.60;102072.13;5029456;28;20652;-86
2023/02/12 08:56:55;;;;;;;47.35;23.25;;;;;;;8.30;38.29;102077.38;5018162;28;20037;-87
2023/02/12 08:59:21;;;;;;;41.67;21.88;;;;;;;9.03;37.09;102071.91;5022462;28;20081;-86
2023/02/12 09:01:49;;;;;;;32.08;19.60;;;;;;;9.61;35.82;102082.69;5019547;28;20362;-87
2023/02/12 09:04:20;;;;;;;36.95;19.83;;;;;;;10.13;34.83;102075.00;5004150;28;20484;-82
2023/02/12 09:06:46;;;;;;;41.10;22.65;;;;;;;10.32;34.38;102082.44;5006303;28;20045;-86
2023/02/12 09:09:11;;;;;;;34.17;19.15;;;;;;;10.71;33.59;102077.47;5022794;28;20069;-86
2023/02/12 09:11:38;;;;;;;32.30;18.80;;;;;;;10.76;33.78;102083.34;5030228;28;20045;-88
2023/02/12 09:14:05;;;;;;;31.05;18.05;;;;;;;11.16;32.86;102096.13;5022250;28;20040;-85
2023/02/12 09:16:33;;;;;;;31.17;18.33;;;;;;;10.69;33.69;102091.06;5019811;28;20122;-86
2023/02/12 09:18:58;;;;;;;39.45;18.77;;;;;;;9.88;34.75;102085.03;5035310;28;20038;-80
2023/02/12 09:21:26;;;;;;;38.67;19.02;;;;;;;10.16;34.38;102104.34;5016210;28;20092;-85
2023/02/12 09:23:58;;;;;;;30.85;19.02;;;;;;;9.45;35.93;102100.94;5026025;28;20036;-85
2023/02/12 09:26:25;;;;;;;33.30;18.85;;;;;;;9.02;36.73;102102.41;5016708;28;20057;-87
2023/02/12 09:28:51;;;;;;;32.97;18.92;;;;;;;9.57;36.39;102099.16;5015085;28;20045;-86
2023/02/12 09:31:28;;;;;;;30.65;18.27;;;;;;;9.04;36.97;102100.47;5001793;28;20487;-86
2023/02/12 09:34:05;;;;;;;34.28;19.10;;;;;;;9.62;36.14;102110.38;5015118;28;20564;-84
2023/02/12 09:36:32;;;;;;;32.88;19.20;;;;;;;11.40;33.72;102106.66;5020785;28;20437;-85
2023/02/12 09:38:59;;;;;;;34.13;19.35;;;;;;;10.81;33.83;102091.03;5023854;28;20045;-80
2023/02/12 09:41:45;;;;;;;35.67;20.00;;;;;;;10.63;34.26;102099.66;5023844;28;20088;-86
2023/02/12 09:44:20;;;;;;;37.38;22.80;;;;;;;10.47;35.32;102097.34;5027932;28;20041;-84
2023/02/12 09:46:52;;;;;;;43.97;26.20;;;;;;;9.03;37.44;102098.72;5012795;28;20073;-88
2023/02/12 09:49:36;;;;;;;35.08;21.85;;;;;;;8.44;38.98;102106.72;5014589;28;20041;-85
2023/02/12 09:52:03;;;;;;;31.33;18.90;;;;;;;8.51;39.09;102097.25;5039119;28;20038;-81
2023/02/12 09:54:35;;;;;;;;;;;;;;;8.36;39.86;102109.09;5023580;28;20220;-85
2023/02/12 09:57:00;;;;;;;28.85;14.85;;;;;;;7.91;41.88;102114.06;5030738;28;19909;-85
2023/02/12 09:59:34;;;;;;;32.40;18.20;;;;;;;7.86;41.89;102105.50;5012854;28;20034;-84
2023/02/12 10:02:00;;;;;;;27.45;14.40;;;;;;;7.67;42.49;102112.13;5006663;28;20033;-85
2023/02/12 10:04:26;;;;;;;25.37;13.93;;;;;;;7.14;44.18;102105.97;5007732;28;20052;-83
2023/02/12 10:07:10;;;;;;;23.00;12.98;;;;;;;6.95;45.13;102109.88;4998400;28;20290;-84
2023/02/12 10:10:04;;;;;;;24.80;13.95;;;;;;;6.73;45.98;102113.09;5021308;28;20052;-84
2023/02/12 10:13:03;;;;;;;25.40;12.82;;;;;;;6.60;46.48;102114.84;5043879;28;20048;-84
2023/02/12 10:15:38;;;;;;;24.55;13.57;;;;;;;6.54;46.40;102120.63;5020449;28;20357;-87
2023/02/12 10:18:33;;;;;;;23.95;13.43;;;;;;;6.57;46.56;102106.19;5023478;28;20041;-83
2023/02/12 10:21:17;;;;;;;27.43;14.87;;;;;;;6.40;46.68;102108.13;5027725;28;20127;-84
2023/02/12 10:24:02;;;;;;;26.98;14.52;;;;;;;6.37;46.47;102102.13;5010360;28;20417;-83
2023/02/12 10:26:43;;;;;;;29.25;15.35;;;;;;;6.51;46.10;102113.66;5018492;28;20049;-84
2023/02/12 10:29:31;;;;;;;30.27;15.02;;;;;;;6.60;46.38;102114.00;5011185;28;20431;-84
2023/02/12 10:32:04;;;;;;;28.42;15.45;;;;;;;6.36;46.60;102117.31;5004918;28;20067;-84
2023/02/12 10:34:34;;;;;;;31.08;14.45;;;;;;;6.27;46.04;102104.53;5008971;28;20486;-85
2023/02/12 10:37:40;;;;;;;30.35;16.30;;;;;;;6.03;46.87;102126.47;5015417;28;20486;-83
2023/02/12 10:40:28;;;;;;;30.45;16.38;;;;;;;5.83;47.49;102124.16;5024873;28;20359;-87
2023/02/12 10:43:02;;;;;;;29.13;16.02;;;;;;;5.98;47.17;102103.72;5045132;28;20041;-85
2023/02/12 10:45:38;;;;;;;26.27;14.65;;;;;;;5.67;48.16;102095.75;5023389;28;20044;-84
2023/02/12 10:48:27;;;;;;;27.50;15.32;;;;;;;6.04;47.57;102122.88;5003424;28;20060;-87
2023/02/12 10:51:06;;;;;;;31.88;16.35;;;;;;;6.28;47.16;102124.97;5045562;28;20117;-83
2023/02/12 10:53:45;;;;;;;31.05;16.90;;;;;;;6.41;46.65;102114.34;5061475;28;20043;-85
2023/02/12 10:56:13;;;;;;;32.78;17.58;;;;;;;6.45;46.57;102132.75;5009903;28;20048;-87
2023/02/12 10:58:50;;;;;;;29.83;16.67;;;;;;;6.24;46.23;102115.41;5039572;28;20121;-90
2023/02/12 11:01:48;;;;;;;28.95;15.82;;;;;;;6.53;45.69;102108.19;5059524;28;20029;-86
2023/02/12 11:04:33;;;;;;;29.88;16.15;;;;;;;6.84;45.18;102123.09;5047607;28;20069;-85
2023/02/12 11:07:06;;;;;;;29.80;16.83;;;;;;;6.51;45.31;102102.97;5048615;28;20151;-85
2023/02/12 11:09:58;;;;;;;38.35;17.05;;;;;;;6.66;45.52;102118.97;5018157;28;20064;-84
2023/02/12 11:12:24;;;;;;;28.42;15.52;;;;;;;6.98;44.58;102141.75;5025378;28;20112;-83
2023/02/12 11:14:54;;;;;;;31.43;17.50;;;;;;;7.14;44.61;102146.06;5056283;28;20053;-84
2023/02/12 11:17:35;;;;;;;32.83;17.15;;;;;;;7.14;44.21;102120.22;5002830;28;20060;-82
2023/02/12 11:20:20;;;;;;;34.85;17.17;;;;;;;7.21;44.78;102150.09;5008020;28;20037;-86
2023/02/12 11:23:17;;;;;;;;;;;;;;;7.28;45.10;102148.72;5048955;28;20049;-85
2023/02/12 11:25:58;;;;;;;30.17;16.50;;;;;;;7.57;43.86;102127.13;5031466;28;19955;-86
2023/02/12 11:28:24;;;;;;;30.67;16.75;;;;;;;7.52;44.25;102139.97;5033544;28;20040;-85
2023/02/12 11:31:12;;;;;;;32.58;18.17;;;;;;;7.76;43.61;102148.97;5004852;28;20040;-83
2023/02/12 11:33:41;;;;;;;29.23;15.90;;;;;;;7.75;43.28;102147.28;5028069;28;20033;-85
2023/02/12 11:36:25;;;;;;;32.70;15.07;;;;;;;7.46;41.63;102137.72;5044308;28;20036;-86
2023/02/12 11:38:59;;;;;;;26.10;14.23;;;;;;;7.39;41.32;102118.53;5009287;28;20037;-85
2023/02/12 11:41:38;;;;;;;29.48;13.95;;;;;;;7.47;43.72;102147.44;5049004;28;20036;-85